Time;durP1;ratioP1;P1;durP2;ratioP2;P2;SDS_P1;SDS_P2;PMS_P1;PMS_P2;Temp;Humidity;BMP_temperature;BMP_pressure;BME280_temperature;BME280_humidity;BME280_pressure;Samples;Min_cycle;Max_cycle;Signal;HPM_P1;HPM_P2
2021/10/16 00:00:21;;;;;;;6.80;6.10;;;14.70;72.60;;;;;;4975707;28;20083;-75
2021/10/16 00:02:47;;;;;;;7.05;6.35;;;14.60;72.50;;;;;;4975269;28;20289;-76
2021/10/16 00:05:14;;;;;;;6.97;5.70;;;14.60;72.60;;;;;;4994354;28;20049;-76
2021/10/16 00:07:40;;;;;;;6.60;5.45;;;14.60;72.60;;;;;;4993141;28;20034;-74
2021/10/16 00:10:09;;;;;;;6.30;5.70;;;14.60;72.60;;;;;;4993006;28;20026;-74
2021/10/16 00:12:35;;;;;;;7.13;6.30;;;14.60;72.60;;;;;;4993159;28;20121;-74
2021/10/16 00:15:01;;;;;;;9.55;6.32;;;14.60;72.70;;;;;;4976354;28;20035;-73
2021/10/16 00:17:27;;;;;;;7.50;6.13;;;14.60;72.70;;;;;;4975888;28;20444;-74
2021/10/16 00:19:53;;;;;;;6.15;5.45;;;14.60;72.70;;;;;;4991949;28;20053;-74
2021/10/16 00:22:20;;;;;;;6.78;6.18;;;14.60;72.70;;;;;;4994465;28;20029;-74
2021/10/16 00:24:49;;;;;;;6.82;6.13;;;14.60;72.70;;;;;;5002946;28;20493;-74
2021/10/16 00:27:16;;;;;;;7.05;6.35;;;14.60;72.80;;;;;;5012427;28;20045;-74
2021/10/16 00:29:43;;;;;;;8.07;6.65;;;14.60;72.80;;;;;;4998828;28;20619;-73
2021/10/16 00:32:09;;;;;;;7.88;6.30;;;14.50;72.60;;;;;;4992257;28;20042;-74
2021/10/16 00:34:36;;;;;;;8.13;6.35;;;14.50;72.60;;;;;;4992711;28;20042;-73
2021/10/16 00:37:02;;;;;;;7.72;6.82;;;14.60;72.80;;;;;;4995995;28;20022;-73
2021/10/16 00:39:28;;;;;;;6.55;5.72;;;14.50;73.10;;;;;;5009010;28;20041;-74
2021/10/16 00:41:54;;;;;;;8.90;6.43;;;14.50;72.70;;;;;;5016646;28;20236;-74
2021/10/16 00:44:23;;;;;;;7.00;6.28;;;14.50;72.70;;;;;;5015317;28;20040;-74
2021/10/16 00:46:55;;;;;;;7.88;6.80;;;14.50;72.70;;;;;;5014590;28;20057;-74
2021/10/16 00:49:21;;;;;;;6.65;6.00;;;14.50;72.80;;;;;;5004135;28;20022;-73
2021/10/16 00:51:48;;;;;;;7.05;6.40;;;14.50;72.80;;;;;;5009010;28;20486;-73
2021/10/16 00:54:14;;;;;;;8.15;6.55;;;14.50;72.80;;;;;;4994559;28;20564;-74
2021/10/16 00:56:44;;;;;;;7.63;6.55;;;14.50;72.80;;;;;;5014791;28;20030;-74
2021/10/16 00:59:11;;;;;;;7.97;7.18;;;14.50;72.80;;;;;;5023682;28;20027;-74
2021/10/16 01:01:39;;;;;;;8.13;6.55;;;14.50;72.80;;;;;;4990598;28;20030;-76
2021/10/16 01:04:05;;;;;;;7.32;6.22;;;14.50;72.90;;;;;;5005506;28;20528;-77
2021/10/16 01:06:37;;;;;;;7.47;6.10;;;14.50;72.90;;;;;;5006758;28;20535;-77
2021/10/16 01:09:08;;;;;;;9.73;7.15;;;14.50;73.00;;;;;;5013570;28;20061;-73
2021/10/16 01:11:38;;;;;;;8.45;7.38;;;14.50;73.00;;;;;;5007915;28;20026;-75
2021/10/16 01:14:10;;;;;;;9.27;6.38;;;14.50;73.00;;;;;;5004689;28;20038;-75
2021/10/16 01:16:38;;;;;;;6.97;6.30;;;14.50;73.10;;;;;;4996239;28;20994;-77
2021/10/16 01:19:11;;;;;;;8.43;6.00;;;14.50;73.00;;;;;;5008578;28;20040;-76
2021/10/16 01:21:41;;;;;;;8.32;7.45;;;14.50;73.10;;;;;;4992187;28;20698;-73
2021/10/16 01:24:12;;;;;;;6.70;6.10;;;14.50;73.10;;;;;;5013498;28;20037;-76
2021/10/16 01:26:40;;;;;;;6.43;5.82;;;14.40;73.00;;;;;;5006098;28;20409;-76
2021/10/16 01:29:13;;;;;;;7.53;6.38;;;14.50;73.10;;;;;;4992183;28;20037;-76
2021/10/16 01:31:42;;;;;;;6.68;6.00;;;14.50;73.10;;;;;;4987808;28;20038;-76
2021/10/16 01:34:08;;;;;;;7.72;6.93;;;14.50;73.10;;;;;;4993610;28;20039;-76
2021/10/16 01:36:49;;;;;;;7.70;6.13;;;14.40;73.00;;;;;;4992472;28;20423;-76
2021/10/16 01:39:19;;;;;;;6.72;6.10;;;14.50;73.20;;;;;;5003563;28;20111;-76
2021/10/16 01:41:46;;;;;;;6.88;6.28;;;14.40;73.00;;;;;;5018791;28;20034;-76
2021/10/16 01:44:14;;;;;;;8.50;6.95;;;14.40;73.00;;;;;;5033062;28;20457;-75
2021/10/16 01:46:41;;;;;;;7.68;6.65;;;14.40;73.10;;;;;;5007663;28;20120;-76
2021/10/16 01:49:17;;;;;;;8.43;6.53;;;14.40;73.10;;;;;;5004830;28;20100;-76
2021/10/16 01:51:47;;;;;;;6.88;6.07;;;14.40;73.20;;;;;;4996963;28;20042;-75
2021/10/16 01:54:14;;;;;;;8.43;6.32;;;14.40;73.20;;;;;;4991104;28;20061;-76
2021/10/16 01:56:50;;;;;;;10.07;7.38;;;14.40;73.20;;;;;;5010503;28;20105;-75
2021/10/16 01:59:17;;;;;;;9.07;6.80;;;14.40;73.20;;;;;;5027158;28;20466;-75
2021/10/16 02:02:10;;;;;;;8.13;7.32;;;14.40;73.20;;;;;;5011334;28;20277;-76
2021/10/16 02:04:43;;;;;;;8.60;6.97;;;14.40;73.20;;;;;;5027284;28;20351;-75
2021/10/16 02:07:10;;;;;;;7.85;6.47;;;14.30;73.10;;;;;;5027084;28;20545;-76
2021/10/16 02:09:36;;;;;;;7.65;6.68;;;14.40;73.30;;;;;;5011374;28;20082;-75
2021/10/16 02:12:02;;;;;;;7.50;6.80;;;14.40;73.40;;;;;;5013353;28;20084;-75
2021/10/16 02:14:33;;;;;;;8.02;7.22;;;14.40;73.40;;;;;;5011564;28;20100;-76
2021/10/16 02:17:03;;;;;;;9.02;7.13;;;14.40;73.50;;;;;;5027371;28;20030;-76
2021/10/16 02:19:29;;;;;;;8.38;6.70;;;14.40;73.50;;;;;;5027070;28;20038;-76
2021/10/16 02:21:57;;;;;;;7.72;6.72;;;14.40;73.50;;;;;;5027161;28;20053;-76
2021/10/16 02:24:25;;;;;;;8.05;7.30;;;14.40;73.50;;;;;;5026700;28;20064;-76
2021/10/16 02:26:51;;;;;;;8.15;6.97;;;14.40;73.60;;;;;;5027166;28;20508;-75
2021/10/16 02:29:20;;;;;;;8.48;7.25;;;14.30;73.40;;;;;;5026267;28;20034;-76
2021/10/16 02:32:16;;;;;;;8.45;7.15;;;14.30;73.40;;;;;;5007042;28;20036;-76
2021/10/16 02:34:42;;;;;;;8.50;7.15;;;14.30;73.40;;;;;;5026744;28;20046;-76
2021/10/16 02:37:15;;;;;;;11.57;7.45;;;14.30;73.40;;;;;;5026628;28;20121;-76
2021/10/16 02:39:41;;;;;;;8.18;6.88;;;14.30;73.50;;;;;;5026508;28;20136;-76
2021/10/16 02:42:08;;;;;;;8.82;7.20;;;14.30;73.50;;;;;;5026983;28;20037;-76
2021/10/16 02:44:35;;;;;;;9.25;7.38;;;14.30;73.50;;;;;;5026263;28;20037;-75
2021/10/16 02:47:02;;;;;;;8.32;7.18;;;14.30;73.60;;;;;;5026656;28;20096;-75
2021/10/16 02:49:28;;;;;;;9.75;7.93;;;14.30;73.70;;;;;;5026600;28;20104;-75
2021/10/16 02:51:54;;;;;;;12.23;8.15;;;14.30;73.70;;;;;;5009768;28;20030;-76
2021/10/16 02:54:20;;;;;;;9.48;7.38;;;14.30;73.70;;;;;;5026539;28;20153;-76
2021/10/16 02:56:48;;;;;;;8.45;7.65;;;14.30;73.70;;;;;;5026656;28;20034;-76
2021/10/16 02:59:15;;;;;;;8.98;7.80;;;14.30;73.70;;;;;;5026316;28;20045;-76
2021/10/16 03:01:53;;;;;;;10.77;8.13;;;14.30;73.80;;;;;;5025575;28;20536;-76
2021/10/16 03:04:25;;;;;;;8.80;7.85;;;14.30;73.80;;;;;;5026257;28;20033;-75
2021/10/16 03:06:51;;;;;;;10.32;8.35;;;14.30;73.80;;;;;;5027669;28;20034;-76
2021/10/16 03:09:18;;;;;;;10.55;9.50;;;14.20;73.70;;;;;;5028019;28;20469;-76
2021/10/16 03:11:45;;;;;;;12.80;8.60;;;14.30;73.90;;;;;;5012623;28;20439;-76
2021/10/16 03:14:13;;;;;;;10.93;8.40;;;14.30;73.90;;;;;;5012540;28;20048;-76
2021/10/16 03:16:43;;;;;;;9.50;8.50;;;14.20;73.70;;;;;;5012886;28;20057;-76
2021/10/16 03:19:20;;;;;;;10.50;9.07;;;14.20;73.80;;;;;;5014024;28;20079;-75
2021/10/16 03:21:53;;;;;;;;;;;14.30;74.00;;;;;;5029324;28;20505;-75
2021/10/16 03:24:33;;;;;;;10.07;7.50;;;14.20;73.70;;;;;;5012672;28;19910;-75
2021/10/16 03:26:58;;;;;;;9.63;8.38;;;14.30;73.90;;;;;;5012296;28;20040;-76
2021/10/16 03:29:25;;;;;;;10.32;9.30;;;14.20;73.70;;;;;;5029399;28;20033;-76
2021/10/16 03:31:51;;;;;;;10.30;9.07;;;14.20;73.70;;;;;;5012387;28;20038;-76
2021/10/16 03:34:18;;;;;;;10.73;8.95;;;14.20;73.80;;;;;;5028702;28;20038;-76
2021/10/16 03:36:45;;;;;;;10.20;9.15;;;14.20;73.90;;;;;;5028879;28;20037;-77
2021/10/16 03:39:11;;;;;;;10.20;9.20;;;14.20;73.90;;;;;;5029844;28;20040;-76
2021/10/16 03:41:38;;;;;;;10.82;9.68;;;14.20;73.90;;;;;;4996686;28;20033;-77
2021/10/16 03:44:04;;;;;;;10.55;9.43;;;14.20;73.90;;;;;;5028694;28;20473;-77
2021/10/16 03:46:30;;;;;;;10.70;9.07;;;14.20;74.00;;;;;;5028231;28;20037;-77
2021/10/16 03:48:56;;;;;;;10.40;8.88;;;14.10;73.80;;;;;;5013165;28;20056;-76
2021/10/16 03:51:25;;;;;;;10.82;9.07;;;14.10;74.40;;;;;;5028411;28;20026;-77
2021/10/16 03:53:51;;;;;;;10.43;9.32;;;14.10;73.90;;;;;;5028697;28;20038;-75
2021/10/16 03:56:17;;;;;;;11.07;8.98;;;14.10;73.90;;;;;;5011828;28;20096;-74
2021/10/16 03:58:43;;;;;;;12.27;9.95;;;14.10;73.90;;;;;;5028913;28;20105;-75
2021/10/16 04:01:09;;;;;;;12.43;9.10;;;14.10;73.90;;;;;;5011736;28;20429;-74
2021/10/16 04:03:37;;;;;;;12.27;9.98;;;14.10;74.00;;;;;;5011829;28;20104;-75
2021/10/16 04:06:04;;;;;;;11.00;8.95;;;14.10;74.00;;;;;;5011904;28;20548;-75
2021/10/16 04:08:30;;;;;;;10.23;9.20;;;14.10;74.10;;;;;;5011754;28;20072;-75
2021/10/16 04:10:57;;;;;;;12.70;10.93;;;14.10;74.10;;;;;;5028514;28;20100;-74
2021/10/16 04:13:23;;;;;;;11.13;8.98;;;14.10;74.20;;;;;;5011491;28;20045;-75
2021/10/16 04:15:52;;;;;;;11.15;9.88;;;14.10;74.20;;;;;;5028183;28;20429;-75
2021/10/16 04:18:18;;;;;;;10.20;9.07;;;14.10;74.20;;;;;;5027786;28;20084;-75
2021/10/16 04:20:44;;;;;;;12.32;10.68;;;14.10;74.20;;;;;;5011402;28;20083;-73
2021/10/16 04:23:10;;;;;;;14.52;9.52;;;14.10;74.20;;;;;;5013038;28;20030;-74
2021/10/16 04:25:37;;;;;;;10.73;8.75;;;14.10;74.30;;;;;;5012747;28;20037;-73
2021/10/16 04:28:03;;;;;;;10.88;9.15;;;14.10;74.30;;;;;;5011671;28;20021;-74
2021/10/16 04:30:46;;;;;;;11.07;9.98;;;14.10;74.30;;;;;;5027250;28;20057;-76
2021/10/16 04:33:12;;;;;;;13.52;10.05;;;14.10;74.30;;;;;;5027827;28;20391;-75
2021/10/16 04:35:41;;;;;;;10.52;9.43;;;14.10;74.30;;;;;;5027685;28;20029;-77
2021/10/16 04:38:08;;;;;;;10.43;9.43;;;14.10;74.30;;;;;;5011121;28;20030;-76
2021/10/16 04:40:35;;;;;;;10.02;8.98;;;14.10;74.30;;;;;;5012373;28;20029;-76
2021/10/16 04:43:05;;;;;;;11.50;10.15;;;14.10;74.30;;;;;;4993121;28;20030;-75
2021/10/16 04:45:35;;;;;;;11.27;10.00;;;14.10;74.30;;;;;;5007591;28;20018;-75
2021/10/16 04:48:01;;;;;;;10.00;9.00;;;14.10;74.30;;;;;;4986130;28;20073;-77
2021/10/16 04:50:29;;;;;;;12.10;10.70;;;14.10;74.30;;;;;;4989307;28;20465;-77
2021/10/16 04:52:56;;;;;;;11.70;9.63;;;14.10;74.30;;;;;;4988724;28;20042;-77
2021/10/16 04:55:29;;;;;;;10.90;9.40;;;14.10;74.40;;;;;;5014380;28;20030;-77
2021/10/16 04:57:55;;;;;;;10.98;9.43;;;14.10;74.40;;;;;;5004467;28;20261;-77
2021/10/16 05:00:26;;;;;;;14.68;10.85;;;14.00;74.20;;;;;;5004415;28;20412;-76
2021/10/16 05:02:52;;;;;;;10.85;9.77;;;14.10;74.40;;;;;;4985921;28;20036;-76
2021/10/16 05:05:18;;;;;;;12.32;10.52;;;14.10;74.50;;;;;;5002801;28;20038;-76
2021/10/16 05:07:44;;;;;;;10.43;8.95;;;14.10;74.50;;;;;;4969607;28;20034;-75
2021/10/16 05:10:11;;;;;;;12.02;9.82;;;14.10;74.50;;;;;;4987696;28;20113;-76
2021/10/16 05:12:37;;;;;;;10.48;9.25;;;14.10;74.50;;;;;;5000021;28;20035;-77
2021/10/16 05:15:04;;;;;;;11.55;10.35;;;14.10;74.60;;;;;;4987506;28;20454;-76
2021/10/16 05:17:33;;;;;;;10.70;9.63;;;14.10;74.60;;;;;;5003520;28;20030;-76
2021/10/16 05:20:00;;;;;;;10.20;9.15;;;14.10;74.60;;;;;;4985823;28;20189;-76
2021/10/16 05:22:27;;;;;;;10.70;9.65;;;14.10;74.60;;;;;;5002131;28;20018;-76
2021/10/16 05:24:53;;;;;;;11.20;9.38;;;14.10;74.60;;;;;;4991541;28;20088;-74
2021/10/16 05:27:19;;;;;;;11.35;9.73;;;14.10;74.60;;;;;;4977270;28;20486;-76
2021/10/16 05:29:46;;;;;;;12.02;9.43;;;14.10;74.60;;;;;;4985131;28;20528;-76
2021/10/16 05:32:12;;;;;;;12.40;10.30;;;14.00;74.40;;;;;;4983603;28;20034;-76
2021/10/16 05:34:37;;;;;;;11.50;10.30;;;14.10;74.60;;;;;;4986103;28;20493;-76
2021/10/16 05:37:07;;;;;;;10.70;9.60;;;14.10;74.60;;;;;;5001230;28;20023;-76
2021/10/16 05:39:35;;;;;;;13.13;10.98;;;14.10;74.60;;;;;;5001004;28;20121;-76
2021/10/16 05:42:01;;;;;;;12.18;10.82;;;14.00;74.40;;;;;;4986234;28;20444;-76
2021/10/16 05:44:29;;;;;;;11.48;10.32;;;14.00;74.40;;;;;;4985504;28;20026;-75
2021/10/16 05:46:57;;;;;;;11.52;10.32;;;14.00;74.50;;;;;;5009675;28;20130;-76
2021/10/16 05:49:23;;;;;;;11.13;9.77;;;14.00;74.50;;;;;;4981984;28;20341;-77
2021/10/16 05:51:49;;;;;;;13.77;11.15;;;14.00;74.50;;;;;;4981958;28;20094;-77
2021/10/16 05:54:15;;;;;;;10.70;9.60;;;14.00;74.50;;;;;;5000709;28;20050;-76
2021/10/16 05:56:41;;;;;;;11.40;10.18;;;14.00;74.50;;;;;;4966388;28;20389;-77
2021/10/16 05:59:07;;;;;;;11.95;10.68;;;14.00;74.60;;;;;;4998006;28;20349;-76
2021/10/16 06:01:34;;;;;;;12.50;11.27;;;14.00;74.60;;;;;;4985112;28;20052;-77
2021/10/16 06:04:00;;;;;;;11.25;10.10;;;14.00;74.60;;;;;;4984787;28;20027;-76
2021/10/16 06:06:26;;;;;;;11.65;10.45;;;14.00;74.70;;;;;;4984632;28;20425;-77
2021/10/16 06:08:53;;;;;;;11.52;10.32;;;14.00;74.70;;;;;;4984433;28;20117;-78
2021/10/16 06:11:20;;;;;;;14.82;12.00;;;14.00;74.70;;;;;;4999584;28;20534;-76
2021/10/16 06:13:46;;;;;;;11.45;10.25;;;14.00;74.70;;;;;;4967786;28;20050;-76
2021/10/16 06:16:12;;;;;;;11.02;9.93;;;14.00;74.70;;;;;;4978157;28;20486;-78
2021/10/16 06:18:40;;;;;;;13.40;10.90;;;14.00;74.70;;;;;;4985610;28;20041;-78
2021/10/16 06:21:08;;;;;;;11.50;10.30;;;14.00;74.70;;;;;;5000593;28;20393;-76
2021/10/16 06:23:38;;;;;;;10.77;9.45;;;14.00;74.70;;;;;;4985818;28;20122;-78
2021/10/16 06:26:05;;;;;;;11.05;9.73;;;14.00;74.70;;;;;;4984554;28;20044;-77
2021/10/16 06:28:31;;;;;;;12.85;10.20;;;14.00;74.80;;;;;;4992816;28;20039;-76
2021/10/16 06:30:57;;;;;;;11.25;10.02;;;14.00;75.20;;;;;;4982174;28;20103;-77
2021/10/16 06:33:25;;;;;;;12.35;11.15;;;14.00;75.60;;;;;;4978833;28;20034;-77
2021/10/16 06:35:52;;;;;;;21.52;12.15;;;14.00;75.90;;;;;;4984494;28;20125;-78
2021/10/16 06:38:38;;;;;;;13.10;10.88;;;14.10;76.60;;;;;;4997947;28;20395;-76
2021/10/16 06:41:05;;;;;;;13.65;10.85;;;14.10;77.00;;;;;;4997825;28;20113;-76
2021/10/16 06:43:45;;;;;;;14.07;11.13;;;14.20;77.50;;;;;;4987473;28;20030;-77
2021/10/16 06:46:29;;;;;;;15.88;11.02;;;14.20;77.60;;;;;;4988917;28;20128;-76
2021/10/16 06:49:17;;;;;;;14.95;10.77;;;14.20;77.60;;;;;;4988872;28;20401;-78
2021/10/16 06:51:43;;;;;;;12.27;10.48;;;14.20;77.60;;;;;;4988234;28;20097;-77
2021/10/16 06:54:12;;;;;;;13.40;11.10;;;14.20;77.60;;;;;;5003874;28;20417;-77
2021/10/16 06:56:38;;;;;;;11.55;10.18;;;14.20;77.70;;;;;;5003507;28;20469;-77
2021/10/16 06:59:05;;;;;;;11.88;10.38;;;14.20;77.70;;;;;;5002123;28;20393;-76
2021/10/16 07:01:31;;;;;;;10.55;9.15;;;14.20;77.70;;;;;;5008072;28;20188;-77
2021/10/16 07:04:02;;;;;;;12.18;10.57;;;14.20;77.70;;;;;;5006349;28;20026;-77
2021/10/16 07:06:29;;;;;;;13.02;10.20;;;14.20;77.70;;;;;;4983898;28;20483;-77
2021/10/16 07:08:55;;;;;;;13.02;10.65;;;14.20;77.70;;;;;;4987859;28;20113;-78
2021/10/16 07:11:22;;;;;;;15.10;11.45;;;14.20;77.70;;;;;;4993877;28;20128;-77
2021/10/16 07:13:48;;;;;;;15.10;11.18;;;14.10;77.50;;;;;;4977251;28;20046;-78
2021/10/16 07:16:14;;;;;;;12.13;10.85;;;14.20;77.60;;;;;;5004819;28;20073;-78
2021/10/16 07:18:41;;;;;;;14.52;10.88;;;14.20;77.60;;;;;;4989815;28;20072;-78
2021/10/16 07:21:07;;;;;;;12.38;11.07;;;14.10;77.40;;;;;;5005253;28;20023;-78
2021/10/16 07:23:33;;;;;;;13.73;11.80;;;14.20;77.50;;;;;;4989118;28;20093;-78
2021/10/16 07:25:59;;;;;;;12.93;10.70;;;14.20;77.50;;;;;;5003352;28;20037;-76
2021/10/16 07:28:26;;;;;;;13.70;10.55;;;14.20;77.50;;;;;;4999412;28;20037;-76
2021/10/16 07:30:52;;;;;;;11.60;10.40;;;14.20;77.40;;;;;;4989471;28;20409;-78
2021/10/16 07:33:18;;;;;;;12.50;10.88;;;14.20;77.40;;;;;;4998663;28;20041;-81
2021/10/16 07:35:44;;;;;;;13.95;11.85;;;14.20;77.30;;;;;;5003194;28;20069;-79
2021/10/16 07:38:12;;;;;;;11.55;10.32;;;14.20;77.30;;;;;;4987690;28;20226;-79
2021/10/16 07:40:38;;;;;;;14.20;11.52;;;14.30;77.40;;;;;;4989854;28;20513;-79
2021/10/16 07:43:05;;;;;;;12.73;10.20;;;14.30;77.30;;;;;;4968055;28;20042;-79
2021/10/16 07:45:32;;;;;;;12.75;11.45;;;14.30;77.30;;;;;;4971263;28;20121;-76
2021/10/16 07:47:58;;;;;;;13.75;10.80;;;14.30;77.20;;;;;;4986019;28;21128;-76
2021/10/16 07:50:27;;;;;;;13.27;10.50;;;14.40;77.30;;;;;;5009661;28;20308;-76
2021/10/16 07:52:53;;;;;;;12.05;10.77;;;14.40;77.30;;;;;;5008645;28;20026;-77
2021/10/16 07:55:20;;;;;;;14.50;12.15;;;14.40;77.30;;;;;;5000747;28;20048;-77
2021/10/16 07:57:46;;;;;;;16.02;12.95;;;14.50;77.60;;;;;;4973018;28;20093;-75
2021/10/16 08:00:13;;;;;;;13.00;11.70;;;14.60;77.80;;;;;;4990560;28;20037;-77
2021/10/16 08:02:39;;;;;;;16.00;12.27;;;14.60;77.70;;;;;;4976367;28;20022;-79
2021/10/16 08:05:06;;;;;;;16.85;13.20;;;14.70;77.90;;;;;;4990479;28;20034;-81
2021/10/16 08:07:33;;;;;;;16.10;13.27;;;14.70;77.80;;;;;;4992529;28;20482;-78
2021/10/16 08:10:01;;;;;;;15.38;13.80;;;14.80;77.90;;;;;;4992464;28;20513;-78
2021/10/16 08:12:27;;;;;;;16.02;13.02;;;14.80;77.70;;;;;;5021933;28;20039;-80
2021/10/16 08:14:53;;;;;;;14.93;12.57;;;14.90;77.90;;;;;;4991074;28;20482;-79
2021/10/16 08:17:19;;;;;;;19.42;15.10;;;15.00;78.00;;;;;;4993064;28;20057;-77
2021/10/16 08:19:45;;;;;;;17.67;14.68;;;15.00;78.00;;;;;;4991353;28;20041;-78
2021/10/16 08:22:14;;;;;;;18.55;15.15;;;15.10;78.30;;;;;;4991174;28;20497;-79
2021/10/16 08:24:42;;;;;;;19.92;16.15;;;15.20;78.50;;;;;;5006996;28;20088;-77
2021/10/16 08:27:10;;;;;;;17.65;14.63;;;15.20;78.50;;;;;;4991632;28;20026;-78
2021/10/16 08:29:36;;;;;;;17.27;13.98;;;15.30;78.80;;;;;;4986594;28;20031;-76
2021/10/16 08:32:03;;;;;;;20.65;16.35;;;15.30;78.70;;;;;;4966624;28;20078;-77
2021/10/16 08:34:29;;;;;;;19.88;14.73;;;15.30;78.70;;;;;;4989302;28;20035;-76
2021/10/16 08:36:55;;;;;;;20.40;16.45;;;15.40;78.90;;;;;;4989915;28;20386;-76
2021/10/16 08:39:23;;;;;;;16.38;14.40;;;15.40;79.40;;;;;;5004556;28;20476;-78
2021/10/16 08:41:50;;;;;;;20.38;15.95;;;15.50;79.00;;;;;;4990391;28;20034;-77
2021/10/16 08:44:16;;;;;;;19.70;14.88;;;15.40;78.80;;;;;;4989715;28;20095;-78
2021/10/16 08:46:44;;;;;;;17.77;14.65;;;15.50;78.90;;;;;;4988072;28;20042;-79
2021/10/16 08:49:15;;;;;;;19.73;15.05;;;15.50;78.90;;;;;;4994650;28;20038;-77
2021/10/16 08:51:43;;;;;;;17.85;15.65;;;15.60;79.10;;;;;;4988444;28;20066;-77
2021/10/16 08:54:09;;;;;;;17.25;14.50;;;15.60;79.00;;;;;;4986464;28;20398;-77
2021/10/16 08:56:35;;;;;;;15.85;14.18;;;15.60;78.90;;;;;;5006297;28;20548;-78
2021/10/16 08:59:09;;;;;;;18.15;14.60;;;15.70;78.90;;;;;;4994631;28;20081;-77
2021/10/16 09:01:54;;;;;;;19.27;14.38;;;15.80;79.10;;;;;;4988025;28;20467;-79
2021/10/16 09:04:21;;;;;;;20.73;14.80;;;15.90;79.10;;;;;;4985712;28;20030;-79
2021/10/16 09:06:48;;;;;;;20.92;14.70;;;15.90;79.00;;;;;;4987300;28;20056;-79
2021/10/16 09:09:16;;;;;;;17.48;14.25;;;16.00;79.00;;;;;;5003161;28;20076;-80
2021/10/16 09:11:49;;;;;;;15.38;13.38;;;16.00;78.90;;;;;;5007373;28;20125;-79
2021/10/16 09:14:33;;;;;;;24.45;15.82;;;16.10;78.90;;;;;;4989131;28;20034;-79
2021/10/16 09:17:01;;;;;;;16.42;14.02;;;16.10;78.70;;;;;;4988178;28;20027;-78
2021/10/16 09:19:32;;;;;;;15.38;13.32;;;16.20;78.70;;;;;;5005291;28;20088;-78
2021/10/16 09:22:11;;;;;;;17.42;14.27;;;16.30;78.80;;;;;;5007785;28;20490;-77
2021/10/16 09:24:45;;;;;;;17.00;14.35;;;16.30;78.60;;;;;;4974066;28;20237;-78
2021/10/16 09:27:20;;;;;;;15.77;13.00;;;16.40;78.60;;;;;;5023682;28;20030;-78
2021/10/16 09:29:51;;;;;;;15.30;13.70;;;16.50;78.60;;;;;;4989184;28;20038;-78
2021/10/16 09:32:22;;;;;;;15.07;13.40;;;16.60;78.50;;;;;;4974646;28;20036;-78
2021/10/16 09:34:56;;;;;;;17.73;13.38;;;16.70;78.40;;;;;;5007923;28;20505;-79
2021/10/16 09:37:24;;;;;;;15.93;12.32;;;16.80;78.30;;;;;;5005841;28;20049;-78
2021/10/16 09:39:50;;;;;;;17.55;13.13;;;16.80;78.00;;;;;;4987017;28;20037;-78
2021/10/16 09:42:40;;;;;;;16.00;13.13;;;17.00;78.10;;;;;;5002856;28;20030;-78
2021/10/16 09:45:08;;;;;;;14.38;12.40;;;17.00;77.80;;;;;;4986449;28;20033;-77
2021/10/16 09:47:35;;;;;;;15.90;12.07;;;17.10;77.80;;;;;;4989212;28;20467;-77
2021/10/16 09:50:09;;;;;;;16.88;13.60;;;17.20;77.70;;;;;;5005285;28;20036;-77
2021/10/16 09:52:41;;;;;;;16.08;14.07;;;17.30;77.70;;;;;;5004043;28;20080;-77
2021/10/16 09:55:12;;;;;;;13.82;12.43;;;17.40;77.60;;;;;;4990335;28;20061;-76
2021/10/16 09:57:44;;;;;;;15.98;13.30;;;17.50;77.60;;;;;;4985484;28;20482;-76
2021/10/16 10:00:11;;;;;;;13.95;12.18;;;17.50;77.30;;;;;;4987029;28;20030;-76
2021/10/16 10:02:40;;;;;;;12.80;11.55;;;17.60;77.30;;;;;;4991210;28;20033;-76
2021/10/16 10:05:08;;;;;;;14.52;12.60;;;17.60;77.10;;;;;;5005329;28;20088;-76
2021/10/16 10:07:35;;;;;;;15.35;11.80;;;17.70;77.10;;;;;;4989782;28;20486;-77
2021/10/16 10:10:03;;;;;;;12.55;11.13;;;17.70;76.90;;;;;;4973290;28;20035;-77
2021/10/16 10:12:29;;;;;;;14.75;12.45;;;17.80;76.90;;;;;;4983127;28;20138;-77
2021/10/16 10:14:55;;;;;;;13.70;11.07;;;17.80;76.70;;;;;;5006247;28;20176;-78
2021/10/16 10:17:31;;;;;;;14.90;12.38;;;17.90;76.70;;;;;;5005099;28;20045;-77
2021/10/16 10:20:01;;;;;;;12.93;11.50;;;18.00;76.70;;;;;;4990169;28;20039;-78
2021/10/16 10:22:32;;;;;;;12.65;11.35;;;18.00;76.60;;;;;;4993269;28;20038;-78
2021/10/16 10:24:58;;;;;;;14.25;11.35;;;18.10;76.60;;;;;;5000233;28;20030;-78
2021/10/16 10:27:25;;;;;;;13.63;12.20;;;18.20;76.60;;;;;;5009859;28;20476;-79
2021/10/16 10:29:53;;;;;;;12.30;11.00;;;18.30;76.60;;;;;;5010551;28;20488;-78
2021/10/16 10:32:23;;;;;;;12.85;11.55;;;18.40;76.50;;;;;;5007601;28;20440;-77
2021/10/16 10:35:09;;;;;;;12.43;11.15;;;18.50;76.40;;;;;;4990384;28;20145;-79
2021/10/16 10:37:40;;;;;;;11.18;10.07;;;18.60;76.30;;;;;;4992111;28;20639;-78
2021/10/16 10:40:15;;;;;;;12.43;10.73;;;18.70;76.20;;;;;;5009747;28;20485;-77
2021/10/16 10:42:44;;;;;;;11.02;9.57;;;18.80;76.10;;;;;;5005512;28;20043;-77
2021/10/16 10:45:42;;;;;;;13.50;10.93;;;18.80;76.00;;;;;;4990038;28;20077;-77
2021/10/16 10:48:11;;;;;;;12.60;11.20;;;18.90;75.90;;;;;;4977302;28;20046;-76
2021/10/16 10:50:50;;;;;;;14.02;11.20;;;18.90;75.80;;;;;;4989927;28;20379;-78
2021/10/16 10:53:42;;;;;;;12.90;9.95;;;18.90;75.60;;;;;;4989755;28;20096;-77
2021/10/16 10:56:14;;;;;;;12.57;9.60;;;19.00;75.70;;;;;;4987853;28;20485;-76
2021/10/16 10:58:54;;;;;;;13.50;9.93;;;19.10;75.70;;;;;;4998054;28;20034;-77
2021/10/16 11:01:42;;;;;;;12.50;10.63;;;19.10;75.40;;;;;;4989960;28;20034;-77
2021/10/16 11:04:31;;;;;;;10.43;9.38;;;19.20;75.40;;;;;;4989413;28;20477;-78
2021/10/16 11:07:00;;;;;;;10.88;9.73;;;19.30;75.70;;;;;;4972850;28;20034;-78
2021/10/16 11:09:26;;;;;;;13.73;10.32;;;19.30;75.20;;;;;;5006224;28;20531;-77
2021/10/16 11:11:51;;;;;;;12.10;9.63;;;19.40;75.20;;;;;;5010039;28;20037;-78
2021/10/16 11:14:18;;;;;;;10.68;8.55;;;19.40;75.60;;;;;;4991255;28;20045;-76
2021/10/16 11:16:59;;;;;;;9.55;8.15;;;19.40;74.90;;;;;;4991258;28;20022;-77
2021/10/16 11:19:29;;;;;;;11.18;9.63;;;19.50;74.90;;;;;;4990902;28;20329;-77
2021/10/16 11:21:58;;;;;;;9.68;8.65;;;19.50;74.80;;;;;;4990427;28;20571;-77
2021/10/16 11:24:32;;;;;;;9.52;8.52;;;19.60;74.80;;;;;;4991398;28;20034;-78
2021/10/16 11:26:59;;;;;;;8.90;7.95;;;19.70;74.80;;;;;;5027358;28;20034;-77
2021/10/16 11:29:40;;;;;;;9.75;7.97;;;19.70;74.70;;;;;;4991957;28;20035;-80
2021/10/16 11:32:16;;;;;;;9.93;8.15;;;19.80;74.60;;;;;;5004979;28;20129;-79
2021/10/16 11:35:05;;;;;;;9.00;8.10;;;19.80;74.50;;;;;;4988184;28;20456;-76
2021/10/16 11:37:43;;;;;;;8.95;7.68;;;19.90;74.40;;;;;;4970942;28;20109;-76
2021/10/16 11:40:30;;;;;;;8.27;6.85;;;20.00;74.40;;;;;;4983697;28;20510;-78
2021/10/16 11:43:02;;;;;;;9.70;7.53;;;20.10;74.40;;;;;;5005404;28;20026;-79
2021/10/16 11:45:35;;;;;;;9.48;6.72;;;20.20;74.30;;;;;;4982118;28;20081;-79
2021/10/16 11:48:04;;;;;;;7.07;5.75;;;20.30;74.20;;;;;;4983482;28;20047;-81
2021/10/16 11:50:34;;;;;;;7.25;6.55;;;20.30;74.00;;;;;;4989155;28;20034;-81
2021/10/16 11:53:15;;;;;;;7.05;6.22;;;20.40;73.90;;;;;;4987427;28;20026;-83
2021/10/16 11:55:48;;;;;;;6.88;5.85;;;20.60;73.80;;;;;;4999017;28;20033;-81
2021/10/16 11:58:17;;;;;;;6.88;5.70;;;20.60;73.60;;;;;;4992408;28;20053;-80
2021/10/16 12:00:47;;;;;;;6.97;5.47;;;20.60;73.40;;;;;;4997644;28;20060;-78
2021/10/16 12:03:19;;;;;;;6.03;5.43;;;20.60;73.30;;;;;;5000602;28;20061;-78
2021/10/16 12:05:52;;;;;;;7.05;5.90;;;20.60;73.20;;;;;;4990709;28;20031;-78
2021/10/16 12:08:24;;;;;;;6.95;5.15;;;20.60;73.20;;;;;;4989680;28;20026;-87
2021/10/16 12:10:52;;;;;;;9.23;7.75;;;20.60;73.10;;;;;;4978614;28;20026;-84
2021/10/16 12:13:33;;;;;;;29.73;25.15;;;20.50;72.80;;;;;;5005245;28;20029;-82
2021/10/16 12:16:15;;;;;;;26.27;20.10;;;20.40;72.80;;;;;;4992274;28;20035;-77
2021/10/16 12:19:11;;;;;;;20.95;16.95;;;20.40;73.00;;;;;;4988575;28;20429;-77
2021/10/16 12:21:41;;;;;;;17.13;13.63;;;20.40;73.30;;;;;;4979956;28;20081;-77
2021/10/16 12:24:24;;;;;;;16.52;12.57;;;20.40;73.30;;;;;;4988036;28;20191;-77
2021/10/16 12:27:10;;;;;;;14.65;11.38;;;20.50;73.10;;;;;;4986304;28;20385;-78
2021/10/16 12:29:44;;;;;;;11.07;8.93;;;20.60;73.00;;;;;;4986967;28;20592;-81
2021/10/16 12:32:12;;;;;;;12.50;10.57;;;20.70;73.00;;;;;;4983322;28;20026;-78
2021/10/16 12:34:41;;;;;;;11.25;9.57;;;20.70;72.90;;;;;;4984546;28;20035;-78
2021/10/16 12:37:12;;;;;;;13.07;9.50;;;20.70;72.80;;;;;;4978649;28;20109;-76
2021/10/16 12:39:47;;;;;;;11.13;8.43;;;20.80;72.80;;;;;;4987510;28;20062;-77
2021/10/16 12:42:21;;;;;;;10.35;8.68;;;20.90;72.90;;;;;;4987883;28;20474;-80
2021/10/16 12:44:54;;;;;;;10.80;7.68;;;20.90;72.80;;;;;;4982032;28;20664;-75
2021/10/16 12:47:24;;;;;;;9.07;7.68;;;20.90;72.60;;;;;;4979074;28;20082;-75